Inicio METAR Ruta Wind Satelite

Informe Meteorológico

Fecha: 2021/09/21 15:12:23 Local
2021.09.21 20:12 UTC


Operación:
SKFL 212000Z 00000KT 2000 RA OVC006 23/23 Q1013 RMK A2993 =